createdAt,value
2023-04-30T00:02:04.828Z,100.00
2023-04-30T00:04:37.432Z,100.00
2023-04-30T00:07:41.147Z,100.00
2023-04-30T00:10:10.832Z,100.00
2023-04-30T00:12:43.238Z,100.00
2023-04-30T00:15:28.185Z,100.00
2023-04-30T00:18:05.505Z,100.00
2023-04-30T00:20:32.452Z,100.00
2023-04-30T00:26:18.471Z,100.00
2023-04-30T00:28:47.314Z,100.00
2023-04-30T00:31:16.907Z,100.00
2023-04-30T00:33:44.384Z,100.00
2023-04-30T00:36:18.169Z,100.00
2023-04-30T00:38:45.740Z,100.00
2023-04-30T00:44:09.551Z,100.00
2023-04-30T00:46:42.208Z,100.00
2023-04-30T00:49:21.536Z,100.00
2023-04-30T00:55:37.574Z,100.00
2023-04-30T01:02:10.758Z,100.00
2023-04-30T01:04:37.234Z,100.00
2023-04-30T01:07:03.956Z,100.00
2023-04-30T01:09:41.103Z,100.00
2023-04-30T01:12:26.190Z,100.00
2023-04-30T01:15:22.877Z,100.00
2023-04-30T01:18:07.940Z,100.00
2023-04-30T01:20:45.995Z,100.00
2023-04-30T01:23:36.962Z,100.00
2023-04-30T01:29:53.337Z,100.00
2023-04-30T01:32:26.222Z,100.00
2023-04-30T01:39:02.015Z,100.00
2023-04-30T01:41:43.741Z,100.00
2023-04-30T01:44:53.630Z,100.00
2023-04-30T01:47:44.898Z,100.00
2023-04-30T01:50:51.520Z,100.00
2023-04-30T01:53:36.358Z,100.00
2023-04-30T01:56:04.361Z,100.00
2023-04-30T01:58:38.285Z,100.00
2023-04-30T02:01:08.913Z,100.00
2023-04-30T02:03:35.623Z,100.00
2023-04-30T02:06:07.796Z,100.00
2023-04-30T02:08:34.366Z,100.00
2023-04-30T02:11:02.220Z,100.00
2023-04-30T02:13:30.023Z,100.00
2023-04-30T02:15:59.289Z,100.00
2023-04-30T02:18:27.077Z,100.00
2023-04-30T02:20:55.211Z,100.00
2023-04-30T02:23:21.720Z,100.00
2023-04-30T02:26:00.773Z,100.00
2023-04-30T02:28:28.356Z,100.00
2023-04-30T02:34:51.075Z,100.00
2023-04-30T02:41:22.418Z,100.00
2023-04-30T02:47:48.637Z,100.00
2023-04-30T03:12:29.173Z,100.00
2023-04-30T03:18:55.415Z,100.00
2023-04-30T03:21:39.012Z,100.00
2023-04-30T03:24:07.168Z,100.00
2023-04-30T03:26:51.412Z,100.00
2023-04-30T03:37:34.709Z,100.00
2023-04-30T03:40:02.271Z,100.00
2023-04-30T03:56:36.404Z,100.00
2023-04-30T04:02:54.677Z,100.00
2023-04-30T04:08:12.476Z,100.00
2023-04-30T04:10:42.080Z,100.00
2023-04-30T04:13:17.905Z,100.00
2023-04-30T04:25:18.604Z,100.00
2023-04-30T04:27:54.526Z,100.00
2023-04-30T04:41:43.578Z,100.00
2023-04-30T05:00:17.249Z,100.00
2023-04-30T05:14:01.532Z,100.00
2023-04-30T05:23:58.861Z,100.00
2023-04-30T05:26:43.569Z,100.00
2023-04-30T05:29:13.502Z,100.00
2023-04-30T05:42:48.368Z,100.00
2023-04-30T05:51:21.093Z,100.00
2023-04-30T06:16:34.939Z,100.00
2023-04-30T06:19:23.462Z,100.00
2023-04-30T06:22:00.490Z,100.00
2023-04-30T06:28:17.217Z,100.00
2023-04-30T06:34:41.450Z,100.00
2023-04-30T06:51:15.353Z,100.00
2023-04-30T06:53:41.783Z,100.00
2023-04-30T06:56:08.216Z,100.00
2023-04-30T06:58:34.644Z,100.00
2023-04-30T07:01:01.395Z,100.00
2023-04-30T07:03:28.318Z,100.00
2023-04-30T07:05:54.992Z,100.00
2023-04-30T07:08:22.241Z,100.00
2023-04-30T07:10:48.719Z,100.00
2023-04-30T07:13:16.491Z,100.00
2023-04-30T07:15:43.021Z,98.36
2023-04-30T07:18:10.015Z,99.57
2023-04-30T07:20:36.696Z,97.64
2023-04-30T07:23:03.412Z,97.46
2023-04-30T07:25:29.932Z,96.78
2023-04-30T07:27:56.425Z,99.02
2023-04-30T07:30:24.893Z,96.32
2023-04-30T07:32:51.795Z,97.82
2023-04-30T07:35:19.274Z,95.53
2023-04-30T07:37:45.834Z,94.74
2023-04-30T07:40:15.311Z,91.85
2023-04-30T07:42:45.092Z,88.53
2023-04-30T07:45:13.024Z,90.44
2023-04-30T07:47:39.577Z,92.52
2023-04-30T07:50:06.541Z,89.01
2023-04-30T07:52:33.011Z,90.11
2023-04-30T07:54:59.491Z,89.38
2023-04-30T07:57:27.030Z,87.11
2023-04-30T07:59:54.185Z,87.36
2023-04-30T08:02:21.245Z,88.78
2023-04-30T08:04:48.103Z,89.71
2023-04-30T08:07:15.956Z,91.63
2023-04-30T08:09:42.424Z,84.29
2023-04-30T08:12:09.629Z,85.59
2023-04-30T08:14:36.391Z,86.39
2023-04-30T08:17:03.346Z,88.48
2023-04-30T08:19:29.924Z,86.12
2023-04-30T08:21:56.432Z,86.29
2023-04-30T08:24:22.922Z,88.08
2023-04-30T08:26:49.415Z,87.05
2023-04-30T08:29:15.882Z,85.27
2023-04-30T08:31:42.369Z,83.73
2023-04-30T08:34:08.875Z,85.15
2023-04-30T08:36:35.881Z,82.10
2023-04-30T08:39:02.373Z,80.91
2023-04-30T08:41:33.613Z,79.85
2023-04-30T08:44:01.521Z,80.95
2023-04-30T08:46:29.237Z,79.59
2023-04-30T08:48:55.807Z,82.73
2023-04-30T08:51:22.315Z,84.50
2023-04-30T08:53:50.700Z,80.21
2023-04-30T08:56:17.525Z,82.34
2023-04-30T08:58:44.318Z,81.30
2023-04-30T09:01:11.147Z,81.74
2023-04-30T09:03:37.833Z,79.95
2023-04-30T09:06:04.493Z,77.32
2023-04-30T09:08:49.940Z,78.94
2023-04-30T09:11:32.206Z,77.82
2023-04-30T09:13:59.425Z,78.05
2023-04-30T09:16:27.498Z,80.64
2023-04-30T09:18:54.308Z,78.87
2023-04-30T09:21:34.060Z,78.55
2023-04-30T09:24:01.905Z,81.33
2023-04-30T09:26:33.119Z,78.67
2023-04-30T09:28:59.826Z,77.69
2023-04-30T09:31:27.914Z,75.54
2023-04-30T09:33:54.435Z,74.45
2023-04-30T09:36:20.928Z,72.68
2023-04-30T09:38:47.431Z,73.54
2023-04-30T09:41:27.340Z,74.79
2023-04-30T09:43:56.945Z,73.65
2023-04-30T09:46:31.046Z,75.26
2023-04-30T09:49:01.639Z,75.11
2023-04-30T09:51:28.758Z,72.10
2023-04-30T09:53:56.052Z,70.23
2023-04-30T09:56:26.704Z,74.37
2023-04-30T09:58:56.859Z,73.25
2023-04-30T10:01:27.076Z,70.86
2023-04-30T10:03:53.531Z,69.74
2023-04-30T10:06:23.269Z,71.02
2023-04-30T10:08:53.417Z,69.45
2023-04-30T10:11:21.444Z,73.28
2023-04-30T10:13:53.570Z,73.34
2023-04-30T10:16:32.819Z,70.81
2023-04-30T10:19:00.262Z,67.30
2023-04-30T10:21:27.234Z,69.47
2023-04-30T10:23:54.718Z,66.31
2023-04-30T10:26:21.201Z,64.99
2023-04-30T10:28:47.704Z,66.68
2023-04-30T10:31:14.269Z,67.62
2023-04-30T10:34:07.009Z,68.31
2023-04-30T10:36:40.913Z,67.80
2023-04-30T10:39:07.393Z,70.96
2023-04-30T10:41:33.889Z,67.14
2023-04-30T10:44:02.253Z,66.04
2023-04-30T10:46:29.051Z,65.10
2023-04-30T10:48:55.704Z,65.17
2023-04-30T10:51:22.530Z,64.39
2023-04-30T10:53:52.968Z,63.70
2023-04-30T10:56:32.135Z,63.27
2023-04-30T10:59:00.140Z,62.64
2023-04-30T11:01:26.995Z,66.02
2023-04-30T11:04:10.036Z,62.23
2023-04-30T11:06:52.181Z,60.49
2023-04-30T11:09:18.752Z,62.50
2023-04-30T11:11:45.751Z,61.34
2023-04-30T11:14:12.303Z,54.27
2023-04-30T11:16:38.920Z,55.20
2023-04-30T11:19:15.292Z,53.11
2023-04-30T11:21:42.499Z,53.67
2023-04-30T11:24:08.998Z,50.97
2023-04-30T11:27:05.458Z,57.99
2023-04-30T11:29:32.032Z,52.12
2023-04-30T11:32:00.979Z,53.89
2023-04-30T11:34:27.483Z,53.69
2023-04-30T11:36:55.359Z,51.61
2023-04-30T11:39:22.438Z,56.64
2023-04-30T11:41:48.928Z,55.41
2023-04-30T11:44:27.776Z,53.15
2023-04-30T11:46:54.606Z,53.06
2023-04-30T11:49:21.152Z,52.33
2023-04-30T11:51:50.925Z,54.18
2023-04-30T11:54:18.521Z,54.22
2023-04-30T11:56:48.614Z,52.53
2023-04-30T11:59:15.301Z,52.22
2023-04-30T12:01:42.393Z,54.46
2023-04-30T12:04:09.127Z,54.17
2023-04-30T12:06:35.879Z,52.74
2023-04-30T12:09:04.811Z,53.14
2023-04-30T12:11:31.665Z,52.90
2023-04-30T12:14:03.362Z,52.83
2023-04-30T12:16:50.285Z,55.95
2023-04-30T12:19:17.689Z,52.82
2023-04-30T12:21:46.275Z,52.75
2023-04-30T12:24:19.339Z,54.42
2023-04-30T12:26:45.895Z,56.29
2023-04-30T12:29:16.562Z,54.26
2023-04-30T12:31:43.177Z,51.77
2023-04-30T12:34:11.791Z,53.73
2023-04-30T12:36:39.052Z,53.42
2023-04-30T12:39:05.649Z,52.12
2023-04-30T12:41:32.858Z,53.73
2023-04-30T12:44:20.796Z,52.32
2023-04-30T12:46:51.374Z,51.91
2023-04-30T12:49:30.580Z,52.54
2023-04-30T12:52:04.744Z,52.21
2023-04-30T12:54:32.468Z,53.21
2023-04-30T12:57:03.489Z,53.40
2023-04-30T12:59:33.451Z,52.53
2023-04-30T13:02:13.392Z,52.97
2023-04-30T13:04:40.811Z,53.71
2023-04-30T13:07:07.443Z,53.08
2023-04-30T13:09:34.346Z,51.64
2023-04-30T13:12:01.173Z,53.14
2023-04-30T13:14:27.733Z,54.03
2023-04-30T13:16:54.599Z,52.78
2023-04-30T13:19:21.263Z,54.91
2023-04-30T13:21:47.726Z,52.76
2023-04-30T13:24:14.215Z,53.76
2023-04-30T13:26:40.690Z,51.94
2023-04-30T13:29:07.423Z,52.21
2023-04-30T13:31:34.030Z,50.59
2023-04-30T13:34:00.853Z,50.60
2023-04-30T13:36:27.350Z,49.52
2023-04-30T13:38:54.070Z,50.64
2023-04-30T13:41:22.031Z,49.70
2023-04-30T13:43:49.129Z,49.30
2023-04-30T13:46:16.614Z,49.44
2023-04-30T13:48:43.198Z,49.84
2023-04-30T13:51:09.695Z,52.00
2023-04-30T13:53:37.284Z,48.91
2023-04-30T13:56:03.894Z,47.94
2023-04-30T13:58:30.377Z,47.86
2023-04-30T14:00:56.882Z,49.46
2023-04-30T14:03:23.444Z,49.31
2023-04-30T14:05:50.063Z,47.88
2023-04-30T14:08:16.546Z,46.89
2023-04-30T14:10:43.077Z,47.79
2023-04-30T14:13:09.820Z,50.10
2023-04-30T14:15:36.284Z,46.97
2023-04-30T14:18:02.838Z,46.42
2023-04-30T14:20:29.451Z,47.44
2023-04-30T14:22:56.085Z,47.42
2023-04-30T14:25:22.544Z,47.00
2023-04-30T14:27:49.008Z,46.77
2023-04-30T14:30:15.633Z,44.37
2023-04-30T14:32:42.136Z,46.35
2023-04-30T14:35:09.656Z,46.37
2023-04-30T14:37:36.144Z,46.95
2023-04-30T14:40:02.978Z,45.86
2023-04-30T14:42:29.501Z,48.54
2023-04-30T14:44:56.233Z,49.42
2023-04-30T14:47:27.107Z,49.45
2023-04-30T14:49:54.001Z,48.72
2023-04-30T14:52:20.639Z,46.54
2023-04-30T14:54:47.114Z,49.43
2023-04-30T14:57:14.260Z,47.80
2023-04-30T14:59:41.775Z,46.64
2023-04-30T15:02:09.095Z,47.75
2023-04-30T15:04:35.616Z,48.09
2023-04-30T15:07:02.508Z,47.00
2023-04-30T15:09:29.045Z,46.92
2023-04-30T15:11:55.938Z,47.33
2023-04-30T15:14:22.475Z,47.84
2023-04-30T15:16:48.938Z,44.91
2023-04-30T15:19:15.461Z,47.28
2023-04-30T15:21:42.041Z,46.34
2023-04-30T15:24:08.948Z,46.28
2023-04-30T15:26:35.410Z,45.29
2023-04-30T15:29:01.869Z,47.01
2023-04-30T15:31:28.395Z,45.84
2023-04-30T15:33:54.917Z,45.62
2023-04-30T15:36:23.248Z,45.54
2023-04-30T15:38:49.746Z,45.78
2023-04-30T15:41:16.206Z,46.28
2023-04-30T15:43:42.680Z,46.98
2023-04-30T15:46:09.289Z,46.61
2023-04-30T15:48:35.793Z,44.89
2023-04-30T15:51:02.323Z,45.17
2023-04-30T15:53:28.788Z,45.06
2023-04-30T15:55:57.009Z,44.97
2023-04-30T15:58:23.790Z,46.32
2023-04-30T16:00:50.398Z,45.69
2023-04-30T16:03:16.983Z,44.49
2023-04-30T16:05:43.900Z,43.71
2023-04-30T16:08:10.551Z,44.33
2023-04-30T16:10:37.370Z,44.67
2023-04-30T16:13:03.858Z,45.21
2023-04-30T16:15:30.442Z,45.23
2023-04-30T16:17:57.259Z,43.65
2023-04-30T16:20:24.051Z,43.76
2023-04-30T16:22:50.602Z,44.36
2023-04-30T16:25:17.190Z,44.72
2023-04-30T16:27:44.140Z,43.85
2023-04-30T16:30:11.203Z,43.12
2023-04-30T16:32:37.725Z,42.62
2023-04-30T16:35:04.397Z,40.36
2023-04-30T16:37:31.098Z,40.64
2023-04-30T16:39:57.812Z,40.01
2023-04-30T16:42:24.667Z,41.68
2023-04-30T16:44:51.208Z,41.96
2023-04-30T16:47:18.687Z,40.50
2023-04-30T16:49:45.183Z,41.69
2023-04-30T16:52:12.151Z,42.84
2023-04-30T16:54:38.890Z,42.98
2023-04-30T16:57:05.406Z,42.85
2023-04-30T16:59:31.910Z,41.72
2023-04-30T17:02:00.506Z,42.67
2023-04-30T17:04:27.239Z,43.48
2023-04-30T17:06:53.897Z,44.58
2023-04-30T17:09:20.389Z,44.39
2023-04-30T17:11:47.035Z,43.92
2023-04-30T17:14:13.527Z,44.37
2023-04-30T17:16:39.993Z,46.14
2023-04-30T17:19:07.654Z,45.31
2023-04-30T17:21:34.283Z,45.47
2023-04-30T17:24:01.637Z,46.94
2023-04-30T17:26:28.143Z,46.94
2023-04-30T17:28:54.619Z,47.92
2023-04-30T17:31:21.102Z,50.11
2023-04-30T17:33:47.644Z,50.52
2023-04-30T17:36:14.193Z,51.53
2023-04-30T17:38:40.694Z,51.71
2023-04-30T17:41:07.240Z,52.42
2023-04-30T17:43:33.708Z,54.50
2023-04-30T17:46:00.252Z,57.61
2023-04-30T17:48:27.269Z,54.65
2023-04-30T17:50:54.311Z,57.62
2023-04-30T17:53:20.905Z,57.10
2023-04-30T17:55:47.382Z,58.49
2023-04-30T17:58:14.011Z,59.30
2023-04-30T18:00:40.971Z,59.08
2023-04-30T18:03:08.182Z,59.55
2023-04-30T18:05:35.814Z,59.25
2023-04-30T18:08:02.530Z,58.65
2023-04-30T18:10:29.010Z,58.94
2023-04-30T18:13:00.763Z,60.46
2023-04-30T18:15:27.418Z,61.98
2023-04-30T18:17:54.215Z,62.92
2023-04-30T18:20:23.716Z,63.00
2023-04-30T18:22:50.233Z,63.08
2023-04-30T18:25:17.370Z,62.81
2023-04-30T18:27:44.047Z,63.70
2023-04-30T18:30:11.494Z,64.14
2023-04-30T18:32:38.067Z,62.98
2023-04-30T18:35:04.816Z,64.70
2023-04-30T18:37:31.874Z,64.49
2023-04-30T18:39:58.501Z,64.39
2023-04-30T18:42:25.013Z,62.23
2023-04-30T18:44:51.529Z,64.01
2023-04-30T18:47:18.008Z,63.54
2023-04-30T18:49:45.084Z,68.03
2023-04-30T18:52:11.592Z,65.73
2023-04-30T18:54:38.072Z,63.54
2023-04-30T18:57:06.095Z,64.73
2023-04-30T18:59:33.255Z,62.60
2023-04-30T19:02:00.103Z,64.23
2023-04-30T19:04:27.492Z,65.35
2023-04-30T19:06:55.691Z,65.35
2023-04-30T19:09:22.504Z,67.99
2023-04-30T19:11:53.243Z,67.79
2023-04-30T19:14:19.878Z,63.58
2023-04-30T19:16:46.779Z,64.21
2023-04-30T19:19:16.775Z,65.74
2023-04-30T19:21:43.739Z,64.93
2023-04-30T19:24:10.275Z,65.98
2023-04-30T19:26:38.158Z,66.43
2023-04-30T19:29:04.722Z,67.69
2023-04-30T19:31:31.574Z,68.47
2023-04-30T19:33:59.406Z,65.32
2023-04-30T19:36:28.475Z,66.50
2023-04-30T19:38:56.216Z,65.11
2023-04-30T19:41:26.137Z,65.41
2023-04-30T19:43:53.603Z,68.03
2023-04-30T19:46:25.918Z,68.35
2023-04-30T19:48:54.571Z,67.95
2023-04-30T19:51:24.640Z,62.70
2023-04-30T19:53:52.283Z,62.52
2023-04-30T19:56:19.218Z,61.98
2023-04-30T19:58:47.429Z,62.67
2023-04-30T20:01:14.619Z,62.53
2023-04-30T20:03:42.089Z,64.67
2023-04-30T20:06:09.698Z,63.93
2023-04-30T20:08:36.450Z,63.67
2023-04-30T20:11:03.988Z,64.75
2023-04-30T20:13:30.613Z,64.70
2023-04-30T20:15:57.437Z,64.15
2023-04-30T20:18:24.006Z,64.89
2023-04-30T20:20:50.679Z,65.32
2023-04-30T20:23:17.716Z,66.83
2023-04-30T20:25:45.397Z,63.68
2023-04-30T20:28:13.023Z,64.40
2023-04-30T20:30:42.761Z,64.46
2023-04-30T20:33:10.172Z,65.24
2023-04-30T20:35:36.766Z,63.90
2023-04-30T20:38:03.250Z,68.53
2023-04-30T20:40:29.752Z,66.38
2023-04-30T20:42:56.217Z,66.48
2023-04-30T20:45:23.642Z,67.87
2023-04-30T20:47:50.286Z,63.93
2023-04-30T20:50:16.825Z,65.28
2023-04-30T20:52:43.716Z,63.84
2023-04-30T20:55:10.585Z,65.17
2023-04-30T20:57:37.082Z,67.18
2023-04-30T21:00:04.880Z,65.72
2023-04-30T21:02:31.464Z,66.81
2023-04-30T21:05:04.384Z,67.12
2023-04-30T21:07:37.283Z,65.94
2023-04-30T21:10:05.195Z,63.92
2023-04-30T21:12:31.657Z,66.39
2023-04-30T21:14:59.667Z,66.92
2023-04-30T21:17:26.324Z,67.23
2023-04-30T21:19:53.022Z,68.90
2023-04-30T21:22:19.996Z,72.69
2023-04-30T21:24:46.464Z,73.63
2023-04-30T21:27:12.934Z,70.38
2023-04-30T21:29:42.172Z,68.62
2023-04-30T21:32:08.646Z,68.85
2023-04-30T21:34:35.147Z,68.66
2023-04-30T21:37:01.701Z,65.04
2023-04-30T21:39:29.415Z,61.79
2023-04-30T21:41:55.864Z,63.66
2023-04-30T21:44:22.342Z,64.87
2023-04-30T21:46:49.187Z,65.71
2023-04-30T21:49:16.768Z,65.48
2023-04-30T21:51:43.227Z,66.29
2023-04-30T21:54:09.705Z,66.20
2023-04-30T21:56:36.493Z,66.16
2023-04-30T21:59:02.952Z,68.12
2023-04-30T22:01:30.108Z,69.24
2023-04-30T22:03:57.108Z,69.04
2023-04-30T22:06:23.691Z,70.99
2023-04-30T22:08:50.168Z,71.52
2023-04-30T22:11:19.132Z,69.50
2023-04-30T22:13:45.598Z,68.85
2023-04-30T22:16:12.307Z,67.88
2023-04-30T22:18:39.729Z,67.57
2023-04-30T22:21:06.609Z,67.21
2023-04-30T22:23:33.120Z,71.48
2023-04-30T22:26:00.105Z,68.46
2023-04-30T22:28:27.063Z,70.55
2023-04-30T22:30:59.768Z,71.50
2023-04-30T22:33:26.312Z,74.26
2023-04-30T22:35:53.109Z,75.62
2023-04-30T22:38:19.890Z,74.01
2023-04-30T22:40:46.441Z,75.71
2023-04-30T22:43:12.913Z,74.70
2023-04-30T22:45:40.526Z,75.64
2023-04-30T22:48:07.955Z,76.34
2023-04-30T22:50:34.971Z,77.60
2023-04-30T22:53:01.511Z,78.44
2023-04-30T22:55:28.313Z,79.80
2023-04-30T22:57:54.844Z,79.45
2023-04-30T23:00:21.325Z,77.18
2023-04-30T23:02:47.901Z,75.26
2023-04-30T23:05:14.533Z,74.90
2023-04-30T23:07:41.087Z,73.50
2023-04-30T23:10:07.800Z,72.70
2023-04-30T23:12:35.603Z,71.62
2023-04-30T23:15:02.157Z,71.89
2023-04-30T23:17:28.673Z,72.00
2023-04-30T23:19:55.284Z,72.43
2023-04-30T23:22:22.067Z,74.70
2023-04-30T23:24:48.573Z,73.38
2023-04-30T23:27:15.120Z,73.25
2023-04-30T23:29:42.888Z,73.08
2023-04-30T23:32:09.427Z,73.80
2023-04-30T23:34:35.971Z,74.86
2023-04-30T23:37:02.476Z,74.88
2023-04-30T23:39:29.159Z,74.27
2023-04-30T23:41:55.975Z,75.68
2023-04-30T23:44:22.442Z,76.03
2023-04-30T23:46:50.723Z,75.15
2023-04-30T23:49:18.223Z,76.03
2023-04-30T23:51:45.695Z,74.76
2023-04-30T23:54:12.228Z,73.15
2023-04-30T23:56:38.705Z,73.35
2023-04-30T23:59:05.188Z,71.75
